createdAt,value
2019-02-27T00:00:46.283Z,0
2019-02-27T00:01:42.547Z,0
2019-02-27T00:02:42.537Z,0
2019-02-27T00:03:42.514Z,0
2019-02-27T00:04:42.743Z,0
2019-02-27T00:05:46.267Z,0
2019-02-27T00:06:42.472Z,0
2019-02-27T00:07:42.452Z,0
2019-02-27T00:08:42.442Z,0
2019-02-27T00:09:42.419Z,0
2019-02-27T00:10:46.028Z,0
2019-02-27T00:11:45.820Z,0
2019-02-27T00:12:42.388Z,0
2019-02-27T00:13:42.363Z,0
2019-02-27T00:14:42.347Z,0
2019-02-27T00:15:45.025Z,0
2019-02-27T00:16:46.793Z,0
2019-02-27T00:17:42.321Z,0
2019-02-27T00:18:42.287Z,0
2019-02-27T00:19:42.321Z,0
2019-02-27T00:20:44.711Z,0
2019-02-27T00:21:45.729Z,0
2019-02-27T00:22:42.224Z,0
2019-02-27T00:23:42.220Z,0
2019-02-27T00:24:42.193Z,0
2019-02-27T00:25:43.726Z,0
2019-02-27T00:26:46.893Z,0
2019-02-27T00:27:42.161Z,0
2019-02-27T00:28:42.131Z,0
2019-02-27T00:29:42.118Z,0
2019-02-27T00:30:45.109Z,0
2019-02-27T00:31:45.101Z,0
2019-02-27T00:32:42.075Z,0
2019-02-27T00:34:02.035Z,0
2019-02-27T00:34:42.055Z,0
2019-02-27T00:35:46.029Z,0
2019-02-27T00:36:44.770Z,0
2019-02-27T00:37:41.999Z,0
2019-02-27T00:38:41.996Z,0
2019-02-27T00:39:41.971Z,0
2019-02-27T00:40:45.741Z,0
2019-02-27T00:41:43.043Z,0
2019-02-27T00:42:41.916Z,0
2019-02-27T00:43:41.905Z,0
2019-02-27T00:44:42.012Z,0
2019-02-27T00:45:44.694Z,0
2019-02-27T00:46:43.927Z,0
2019-02-27T00:47:41.840Z,0
2019-02-27T00:48:41.826Z,0
2019-02-27T00:49:41.812Z,0
2019-02-27T00:50:46.112Z,0
2019-02-27T00:51:44.642Z,0
2019-02-27T00:52:41.767Z,0
2019-02-27T00:53:41.748Z,0
2019-02-27T00:54:41.981Z,0
2019-02-27T00:55:45.731Z,0
2019-02-27T00:56:44.757Z,0
2019-02-27T00:57:41.687Z,0
2019-02-27T00:58:41.675Z,0
2019-02-27T00:59:41.667Z,0
2019-02-27T01:00:46.247Z,0
2019-02-27T01:01:41.622Z,0
2019-02-27T01:02:41.614Z,0
2019-02-27T01:03:41.591Z,0
2019-02-27T01:04:42.723Z,0
2019-02-27T01:05:45.773Z,0
2019-02-27T01:06:41.302Z,0
2019-02-27T01:07:41.532Z,0
2019-02-27T01:08:41.515Z,0
2019-02-27T01:09:44.044Z,0
2019-02-27T01:10:42.805Z,0
2019-02-27T01:11:41.471Z,0
2019-02-27T01:12:41.457Z,0
2019-02-27T01:13:41.438Z,0
2019-02-27T01:14:44.132Z,0
2019-02-27T01:15:41.738Z,0
2019-02-27T01:16:41.389Z,0
2019-02-27T01:17:41.377Z,0
2019-02-27T01:18:41.361Z,0
2019-02-27T01:19:47.569Z,0
2019-02-27T01:20:45.525Z,0
2019-02-27T01:21:41.316Z,0
2019-02-27T01:22:41.296Z,0
2019-02-27T01:23:43.685Z,0
2019-02-27T01:24:41.264Z,0
2019-02-27T01:25:41.504Z,0
2019-02-27T01:26:41.238Z,0
2019-02-27T01:27:45.142Z,0
2019-02-27T01:28:44.517Z,0
2019-02-27T01:29:40.944Z,0
2019-02-27T01:30:41.183Z,0
2019-02-27T01:31:41.172Z,0
2019-02-27T01:32:41.142Z,0
2019-02-27T01:33:45.122Z,0
2019-02-27T01:34:44.124Z,0
2019-02-27T01:35:41.099Z,0
2019-02-27T01:36:41.081Z,0
2019-02-27T01:37:41.064Z,0
2019-02-27T01:38:44.801Z,0
2019-02-27T01:39:41.756Z,0
2019-02-27T01:40:41.020Z,0
2019-02-27T01:41:41.004Z,0
2019-02-27T01:42:41.001Z,0
2019-02-27T01:43:44.416Z,0
2019-02-27T01:44:40.951Z,0
2019-02-27T01:45:40.938Z,0
2019-02-27T01:46:40.921Z,0
2019-02-27T01:47:43.580Z,0
2019-02-27T01:48:45.233Z,0
2019-02-27T01:49:40.879Z,0
2019-02-27T01:50:40.858Z,0
2019-02-27T01:51:40.842Z,0
2019-02-27T01:52:41.665Z,0
2019-02-27T01:53:44.780Z,0
2019-02-27T01:54:40.802Z,0
2019-02-27T01:55:40.776Z,0
2019-02-27T01:56:41.014Z,0
2019-02-27T01:57:43.769Z,0
2019-02-27T01:58:43.170Z,0
2019-02-27T01:59:40.719Z,0
2019-02-27T02:00:40.713Z,0
2019-02-27T02:01:40.683Z,0
2019-02-27T02:02:45.286Z,0
2019-02-27T02:03:40.653Z,0
2019-02-27T02:04:40.641Z,0
2019-02-27T02:05:40.379Z,0
2019-02-27T02:06:40.609Z,0
2019-02-27T02:07:44.894Z,0
2019-02-27T02:08:40.575Z,0
2019-02-27T02:09:40.570Z,0
2019-02-27T02:10:40.542Z,0
2019-02-27T02:11:43.608Z,0
2019-02-27T02:12:43.841Z,0
2019-02-27T02:13:40.497Z,0
2019-02-27T02:14:40.486Z,0
2019-02-27T02:15:40.466Z,0
2019-02-27T02:16:41.913Z,0
2019-02-27T02:17:45.498Z,0
2019-02-27T02:18:40.418Z,0
2019-02-27T02:19:40.398Z,0
2019-02-27T02:20:40.383Z,0
2019-02-27T02:21:42.040Z,0
2019-02-27T02:22:43.526Z,0
2019-02-27T02:23:40.334Z,0
2019-02-27T02:24:40.318Z,0
2019-02-27T02:25:40.304Z,0
2019-02-27T02:26:42.683Z,0
2019-02-27T02:27:43.561Z,0
2019-02-27T02:28:40.259Z,0
2019-02-27T02:29:40.011Z,0
2019-02-27T02:30:40.271Z,0
2019-02-27T02:31:45.801Z,0
2019-02-27T02:32:40.207Z,0
2019-02-27T02:33:40.181Z,0
2019-02-27T02:34:44.768Z,0
2019-02-27T02:35:40.159Z,0
2019-02-27T02:36:40.145Z,0
2019-02-27T02:37:43.623Z,0
2019-02-27T02:38:40.105Z,0
2019-02-27T02:39:40.108Z,0
2019-02-27T02:40:40.073Z,0
2019-02-27T02:41:46.237Z,0
2019-02-27T02:42:40.048Z,0
2019-02-27T02:43:44.996Z,0
2019-02-27T02:44:40.016Z,0
2019-02-27T02:45:40.693Z,0
2019-02-27T02:46:47.417Z,0
2019-02-27T02:47:39.961Z,0
2019-02-27T02:48:39.720Z,0
2019-02-27T02:49:44.811Z,0
2019-02-27T02:50:39.957Z,0
2019-02-27T02:51:39.682Z,0
2019-02-27T02:52:45.023Z,0
2019-02-27T02:53:39.887Z,0
2019-02-27T02:54:43.554Z,0
2019-02-27T02:55:39.838Z,0
2019-02-27T02:56:39.818Z,0
2019-02-27T02:57:43.316Z,0
2019-02-27T02:58:39.803Z,0
2019-02-27T02:59:40.033Z,0
2019-02-27T03:00:45.269Z,0
2019-02-27T03:01:39.749Z,0
2019-02-27T03:02:39.736Z,0
2019-02-27T03:03:43.325Z,0
2019-02-27T03:04:39.706Z,0
2019-02-27T03:05:39.684Z,0
2019-02-27T03:06:42.929Z,0
2019-02-27T03:07:44.415Z,0
2019-02-27T03:08:39.645Z,0
2019-02-27T03:09:39.636Z,0
2019-02-27T03:10:45.199Z,0
2019-02-27T03:11:39.594Z,0
2019-02-27T03:12:39.574Z,0
2019-02-27T03:13:44.140Z,0
2019-02-27T03:14:39.553Z,0
2019-02-27T03:15:39.551Z,0
2019-02-27T03:16:43.752Z,0
2019-02-27T03:17:39.261Z,0
2019-02-27T03:18:39.497Z,0
2019-02-27T03:19:46.258Z,0
2019-02-27T03:20:39.459Z,0
2019-02-27T03:21:39.437Z,0
2019-02-27T03:22:45.223Z,0
2019-02-27T03:23:39.418Z,0
2019-02-27T03:24:39.395Z,0
2019-02-27T03:25:45.281Z,0
2019-02-27T03:26:39.366Z,0
2019-02-27T03:27:39.350Z,0
2019-02-27T03:28:45.522Z,0
2019-02-27T03:29:39.320Z,0
2019-02-27T03:30:43.822Z,0
2019-02-27T03:31:39.313Z,0
2019-02-27T03:32:48.562Z,0
2019-02-27T03:33:39.325Z,0
2019-02-27T03:34:51.731Z,0
2019-02-27T03:35:39.227Z,0
2019-02-27T03:36:43.438Z,0
2019-02-27T03:37:39.204Z,0
2019-02-27T03:38:39.184Z,0
2019-02-27T03:39:42.790Z,0
2019-02-27T03:40:38.916Z,0
2019-02-27T03:41:39.151Z,0
2019-02-27T03:42:42.167Z,0
2019-02-27T03:43:39.119Z,0
2019-02-27T03:44:39.100Z,0
2019-02-27T03:45:39.086Z,0
2019-02-27T03:46:43.263Z,0
2019-02-27T03:47:39.053Z,0
2019-02-27T03:48:39.039Z,0
2019-02-27T03:49:44.566Z,0
2019-02-27T03:50:39.027Z,0
2019-02-27T03:51:39.004Z,0
2019-02-27T03:52:43.377Z,0
2019-02-27T03:53:38.977Z,0
2019-02-27T03:54:38.954Z,0
2019-02-27T03:55:40.074Z,0
2019-02-27T03:56:43.405Z,0
2019-02-27T03:57:38.911Z,0
2019-02-27T03:58:38.900Z,0
2019-02-27T03:59:44.714Z,0
2019-02-27T04:00:38.911Z,0
2019-02-27T04:01:38.848Z,0
2019-02-27T04:02:44.244Z,0
2019-02-27T04:03:38.835Z,0
2019-02-27T04:04:38.837Z,0
2019-02-27T04:05:46.210Z,0
2019-02-27T04:06:38.790Z,0
2019-02-27T04:07:39.802Z,0
2019-02-27T04:08:46.083Z,0
2019-02-27T04:09:38.739Z,0
2019-02-27T04:10:39.411Z,0
2019-02-27T04:11:44.064Z,0
2019-02-27T04:12:38.738Z,0
2019-02-27T04:13:38.678Z,0
2019-02-27T04:14:45.327Z,0
2019-02-27T04:15:38.675Z,0
2019-02-27T04:16:40.525Z,0
2019-02-27T04:17:38.626Z,0
2019-02-27T04:18:38.607Z,0
2019-02-27T04:19:43.809Z,0
2019-02-27T04:20:38.584Z,0
2019-02-27T04:21:38.571Z,0
2019-02-27T04:22:43.799Z,0
2019-02-27T04:23:38.527Z,0
2019-02-27T04:24:38.548Z,0
2019-02-27T04:25:39.391Z,0
2019-02-27T04:26:44.104Z,0
2019-02-27T04:27:38.469Z,0
2019-02-27T04:28:38.457Z,0
2019-02-27T04:29:43.362Z,0
2019-02-27T04:30:38.185Z,0
2019-02-27T04:31:38.426Z,0
2019-02-27T04:32:38.395Z,0
2019-02-27T04:33:38.630Z,0
2019-02-27T04:34:40.777Z,0
2019-02-27T04:35:41.948Z,0
2019-02-27T04:36:38.337Z,0
2019-02-27T04:37:38.310Z,0
2019-02-27T04:38:38.318Z,0
2019-02-27T04:39:41.221Z,0
2019-02-27T04:40:38.267Z,0
2019-02-27T04:41:38.267Z,0
2019-02-27T04:42:37.992Z,0
2019-02-27T04:43:39.799Z,0
2019-02-27T04:44:43.338Z,0
2019-02-27T04:45:38.211Z,0
2019-02-27T04:46:38.177Z,0
2019-02-27T04:47:38.156Z,0
2019-02-27T04:48:38.142Z,0
2019-02-27T04:49:42.300Z,0
2019-02-27T04:50:38.123Z,0
2019-02-27T04:51:38.100Z,0
2019-02-27T04:52:38.085Z,0
2019-02-27T04:53:40.746Z,0
2019-02-27T04:54:43.784Z,0
2019-02-27T04:55:38.037Z,0
2019-02-27T04:56:38.024Z,0
2019-02-27T04:57:41.333Z,0
2019-02-27T04:58:42.699Z,0
2019-02-27T04:59:37.988Z,0
2019-02-27T05:00:37.956Z,0
2019-02-27T05:01:41.161Z,0
2019-02-27T05:02:37.959Z,0
2019-02-27T05:03:37.921Z,0
2019-02-27T05:04:42.168Z,0
2019-02-27T05:05:39.025Z,0
2019-02-27T05:06:37.869Z,0
2019-02-27T05:07:37.856Z,0
2019-02-27T05:08:37.859Z,0
2019-02-27T05:09:40.957Z,0
2019-02-27T05:10:41.249Z,0
2019-02-27T05:11:37.790Z,0
2019-02-27T05:12:37.776Z,0
2019-02-27T05:13:39.288Z,0
2019-02-27T05:14:37.749Z,0
2019-02-27T05:15:41.312Z,0
2019-02-27T05:16:37.712Z,0
2019-02-27T05:17:37.697Z,0
2019-02-27T05:18:37.678Z,0
2019-02-27T05:19:41.886Z,0
2019-02-27T05:20:37.654Z,0
2019-02-27T05:21:37.645Z,0
2019-02-27T05:22:37.618Z,0
2019-02-27T05:23:40.368Z,4
2019-02-27T05:24:40.560Z,4
2019-02-27T05:25:37.574Z,0
2019-02-27T05:26:37.559Z,4
2019-02-27T05:27:37.540Z,4
2019-02-27T05:28:41.792Z,4
2019-02-27T05:29:42.153Z,8
2019-02-27T05:30:37.499Z,8
2019-02-27T05:31:37.479Z,8
2019-02-27T05:32:37.472Z,12
2019-02-27T05:33:44.684Z,12
2019-02-27T05:34:37.449Z,12
2019-02-27T05:35:37.668Z,16
2019-02-27T05:36:39.373Z,20
2019-02-27T05:37:40.921Z,24
2019-02-27T05:38:37.384Z,28
2019-02-27T05:39:38.629Z,36
2019-02-27T05:40:37.339Z,40
2019-02-27T05:41:40.203Z,52
2019-02-27T05:42:41.275Z,60
2019-02-27T05:43:37.296Z,68
2019-02-27T05:44:37.273Z,80
2019-02-27T05:45:38.333Z,92
2019-02-27T05:46:40.476Z,108
2019-02-27T05:47:37.228Z,124
2019-02-27T05:48:37.211Z,136
2019-02-27T05:49:37.217Z,160
2019-02-27T05:50:41.231Z,184
2019-02-27T05:51:37.160Z,204
2019-02-27T05:52:37.152Z,228
2019-02-27T05:53:36.893Z,248
2019-02-27T05:54:39.936Z,276
2019-02-27T05:55:41.489Z,300
2019-02-27T05:56:37.084Z,316
2019-02-27T05:57:38.559Z,344
2019-02-27T05:58:37.047Z,364
2019-02-27T05:59:37.038Z,392
2019-02-27T06:00:37.018Z,432
2019-02-27T06:01:40.472Z,476
2019-02-27T06:02:36.750Z,516
2019-02-27T06:03:36.973Z,556
2019-02-27T06:04:37.010Z,628
2019-02-27T06:05:49.240Z,684
2019-02-27T06:06:37.181Z,736
2019-02-27T06:07:36.915Z,784
2019-02-27T06:08:41.425Z,844
2019-02-27T06:09:36.882Z,896
2019-02-27T06:10:36.862Z,952
2019-02-27T06:11:40.156Z,1012
2019-02-27T06:12:38.089Z,1064
2019-02-27T06:13:36.810Z,1124
2019-02-27T06:14:36.794Z,1180
2019-02-27T06:15:36.780Z,1236
2019-02-27T06:16:40.767Z,1304
2019-02-27T06:17:51.295Z,1380
2019-02-27T06:18:36.736Z,1412
2019-02-27T06:19:40.537Z,1464
2019-02-27T06:20:38.915Z,1512
2019-02-27T06:21:38.718Z,1584
2019-02-27T06:22:38.043Z,1648
2019-02-27T06:23:39.681Z,1744
2019-02-27T06:24:36.636Z,1884
2019-02-27T06:25:36.640Z,2000
2019-02-27T06:26:39.538Z,2068
2019-02-27T06:27:37.150Z,2124
2019-02-27T06:28:36.580Z,2200
2019-02-27T06:29:36.578Z,2268
2019-02-27T06:30:38.336Z,2356
2019-02-27T06:31:42.134Z,2364
2019-02-27T06:32:38.147Z,2328
2019-02-27T06:33:36.504Z,2368
2019-02-27T06:34:36.486Z,2436
2019-02-27T06:35:40.650Z,2388
2019-02-27T06:36:39.199Z,2396
2019-02-27T06:37:36.435Z,2536
2019-02-27T06:38:36.419Z,2740
2019-02-27T06:39:39.117Z,2900
2019-02-27T06:40:36.389Z,3004
2019-02-27T06:41:36.380Z,3148
2019-02-27T06:42:36.625Z,3248
2019-02-27T06:43:36.346Z,3292
2019-02-27T06:44:36.580Z,3476
2019-02-27T06:45:36.320Z,3672
2019-02-27T06:46:36.301Z,3836
2019-02-27T06:47:40.142Z,4004
2019-02-27T06:48:36.273Z,4260
2019-02-27T06:49:36.256Z,4324
2019-02-27T06:50:36.240Z,4408
2019-02-27T06:51:40.228Z,4696
2019-02-27T06:52:35.975Z,4712
2019-02-27T06:53:36.211Z,4888
2019-02-27T06:54:37.748Z,4932
2019-02-27T06:55:36.356Z,5136
2019-02-27T06:56:36.162Z,5072
2019-02-27T06:57:36.152Z,4976
2019-02-27T06:58:36.128Z,5172
2019-02-27T06:59:36.115Z,5572
2019-02-27T07:00:40.800Z,5840
2019-02-27T07:01:36.085Z,6080
2019-02-27T07:02:36.071Z,6176
2019-02-27T07:03:38.011Z,6640
2019-02-27T07:04:36.418Z,5956
2019-02-27T07:05:36.032Z,6856
2019-02-27T07:06:36.894Z,6512
2019-02-27T07:07:38.671Z,6672
2019-02-27T07:08:40.398Z,6896
2019-02-27T07:09:35.980Z,7328
2019-02-27T07:10:35.966Z,6764
2019-02-27T07:11:35.961Z,7772
2019-02-27T07:12:35.945Z,7728
2019-02-27T07:13:37.027Z,7088
2019-02-27T07:14:36.468Z,8380
2019-02-27T07:15:35.901Z,8340
2019-02-27T07:16:35.890Z,8272
2019-02-27T07:17:38.644Z,7804
2019-02-27T07:18:36.511Z,9176
2019-02-27T07:19:35.862Z,8492
2019-02-27T07:20:35.841Z,9292
2019-02-27T07:21:39.732Z,9420
2019-02-27T07:22:35.829Z,8308
2019-02-27T07:23:37.652Z,9096
2019-02-27T07:24:40.027Z,8824
2019-02-27T07:25:35.783Z,8756
2019-02-27T07:26:35.776Z,8700
2019-02-27T07:27:38.730Z,9612
2019-02-27T07:28:35.754Z,9468
2019-02-27T07:29:35.757Z,9320
2019-02-27T07:30:35.734Z,9916
2019-02-27T07:31:35.756Z,10392
2019-02-27T07:32:38.316Z,10596
2019-02-27T07:33:37.950Z,10760
2019-02-27T07:34:35.682Z,10972
2019-02-27T07:35:36.433Z,11132
2019-02-27T07:36:35.934Z,10832
2019-02-27T07:37:35.663Z,11384
2019-02-27T07:38:35.642Z,11368
2019-02-27T07:39:39.845Z,11380
2019-02-27T07:40:35.622Z,11400
2019-02-27T07:41:35.605Z,10704
2019-02-27T07:42:41.050Z,11172
2019-02-27T07:43:35.597Z,11240
2019-02-27T07:44:39.593Z,10380
2019-02-27T07:45:35.576Z,11820
2019-02-27T07:46:35.705Z,12128
2019-02-27T07:47:35.556Z,11420
2019-02-27T07:48:35.535Z,12044
2019-02-27T07:49:38.589Z,12428
2019-02-27T07:50:37.352Z,12176
2019-02-27T07:51:35.509Z,12540
2019-02-27T07:52:39.491Z,12992
2019-02-27T07:53:35.554Z,13220
2019-02-27T07:54:36.680Z,13196
2019-02-27T07:55:35.696Z,13404
2019-02-27T07:56:35.468Z,13432
2019-02-27T07:57:35.453Z,13304
2019-02-27T07:58:40.043Z,10244
2019-02-27T07:59:37.888Z,7508
2019-02-27T08:00:35.427Z,7176
2019-02-27T08:01:43.412Z,7116
2019-02-27T08:02:38.332Z,7116
2019-02-27T08:03:35.392Z,7048
2019-02-27T08:04:35.146Z,7020
2019-02-27T08:05:36.257Z,6976
2019-02-27T08:06:41.412Z,7012
2019-02-27T08:07:35.373Z,6968
2019-02-27T08:08:35.352Z,6976
2019-02-27T08:09:38.027Z,6936
2019-02-27T08:10:39.244Z,6924
2019-02-27T08:11:35.348Z,6912
2019-02-27T08:12:35.326Z,6884
2019-02-27T08:13:37.311Z,6908
2019-02-27T08:14:39.531Z,6836
2019-02-27T08:15:35.289Z,6828
2019-02-27T08:16:39.270Z,6748
2019-02-27T08:17:35.263Z,6720
2019-02-27T08:18:41.591Z,6676
2019-02-27T08:19:35.266Z,6648
2019-02-27T08:20:35.231Z,6580
2019-02-27T08:21:35.217Z,6500
2019-02-27T08:22:35.254Z,6464
2019-02-27T08:23:35.340Z,6448
2019-02-27T08:24:36.216Z,6436
2019-02-27T08:25:35.187Z,6384
2019-02-27T08:26:36.396Z,6364
2019-02-27T08:27:35.174Z,6332
2019-02-27T08:28:35.149Z,6324
2019-02-27T08:29:35.131Z,6328
2019-02-27T08:30:35.128Z,6328
2019-02-27T08:31:36.873Z,6336
2019-02-27T08:32:39.065Z,6328
2019-02-27T08:33:35.095Z,6308
2019-02-27T08:34:35.086Z,6276
2019-02-27T08:35:35.082Z,6244
2019-02-27T08:36:35.077Z,6224
2019-02-27T08:37:35.056Z,6192
2019-02-27T08:38:35.040Z,6176
2019-02-27T08:39:35.031Z,6136
2019-02-27T08:40:35.276Z,6132
2019-02-27T08:41:38.194Z,6104
2019-02-27T08:42:40.489Z,6068
2019-02-27T08:43:35.339Z,6072
2019-02-27T08:44:34.727Z,6028
2019-02-27T08:45:34.965Z,6012
2019-02-27T08:46:39.216Z,5992
2019-02-27T08:47:36.048Z,6004
2019-02-27T08:48:34.929Z,5972
2019-02-27T08:49:36.622Z,5976
2019-02-27T08:50:38.401Z,5960
2019-02-27T08:51:34.898Z,5968
2019-02-27T08:52:34.892Z,5952
2019-02-27T08:53:36.876Z,5944
2019-02-27T08:54:39.399Z,5936
2019-02-27T08:55:38.957Z,5972
2019-02-27T08:56:37.128Z,5952
2019-02-27T08:57:34.833Z,5916
2019-02-27T08:58:37.879Z,5876
2019-02-27T08:59:36.872Z,5876
2019-02-27T09:00:34.816Z,5872
2019-02-27T09:01:34.792Z,5860
2019-02-27T09:02:37.011Z,5816
2019-02-27T09:03:38.792Z,5800
2019-02-27T09:04:34.760Z,5784
2019-02-27T09:05:34.512Z,5696
2019-02-27T09:06:35.348Z,5772
2019-02-27T09:07:38.369Z,5752
2019-02-27T09:08:36.185Z,5744
2019-02-27T09:09:36.205Z,5732
2019-02-27T09:10:37.664Z,5712
2019-02-27T09:11:37.130Z,5700
2019-02-27T09:12:34.695Z,5712
2019-02-27T09:13:34.666Z,5692
2019-02-27T09:14:34.666Z,5676
2019-02-27T09:15:34.644Z,5664
2019-02-27T09:16:34.630Z,5656
2019-02-27T09:17:35.002Z,5624
2019-02-27T09:18:38.008Z,5624
2019-02-27T09:19:34.621Z,5576
2019-02-27T09:20:34.603Z,5556
2019-02-27T09:21:35.439Z,5516
2019-02-27T09:22:36.716Z,5508
2019-02-27T09:23:34.558Z,5504
2019-02-27T09:24:34.555Z,5456
2019-02-27T09:25:34.539Z,5456
2019-02-27T09:26:38.569Z,5444
2019-02-27T09:27:37.538Z,5400
2019-02-27T09:28:34.508Z,5388
2019-02-27T09:29:34.502Z,5376
2019-02-27T09:30:37.158Z,5356
2019-02-27T09:31:47.770Z,5340
2019-02-27T09:32:34.466Z,5324
2019-02-27T09:33:43.205Z,5304
2019-02-27T09:34:34.662Z,5284
2019-02-27T09:35:43.318Z,5248
2019-02-27T09:36:34.425Z,5232
2019-02-27T09:37:34.422Z,5224
2019-02-27T09:38:34.409Z,5216
2019-02-27T09:39:39.847Z,5168
2019-02-27T09:40:41.140Z,5136
2019-02-27T09:41:34.375Z,5140
2019-02-27T09:42:34.369Z,5136
2019-02-27T09:43:37.098Z,5136
2019-02-27T09:44:38.774Z,5124
2019-02-27T09:45:34.978Z,5104
2019-02-27T09:46:34.326Z,5084
2019-02-27T09:47:34.315Z,5060
2019-02-27T09:48:38.021Z,5028
2019-02-27T09:49:34.295Z,4992
2019-02-27T09:50:34.305Z,4968
2019-02-27T09:51:34.277Z,4936
2019-02-27T09:52:37.045Z,4896
2019-02-27T09:53:38.892Z,4884
2019-02-27T09:54:36.287Z,4864
2019-02-27T09:55:34.238Z,4824
2019-02-27T09:56:37.556Z,4808
2019-02-27T09:57:37.438Z,4788
2019-02-27T09:58:33.975Z,4756
2019-02-27T09:59:34.207Z,4736
2019-02-27T10:00:35.767Z,4708
2019-02-27T10:01:39.250Z,4696
2019-02-27T10:02:34.181Z,4696
2019-02-27T10:03:35.325Z,4684
2019-02-27T10:04:36.056Z,4676
2019-02-27T10:05:40.772Z,4676
2019-02-27T10:06:34.136Z,4660
2019-02-27T10:07:34.132Z,4632
2019-02-27T10:08:34.135Z,4600
2019-02-27T10:09:37.114Z,4580
2019-02-27T10:10:34.099Z,4576
2019-02-27T10:11:34.086Z,4552
2019-02-27T10:12:34.875Z,4528
2019-02-27T10:13:35.432Z,4512
2019-02-27T10:14:34.060Z,4496
2019-02-27T10:15:34.509Z,4480
2019-02-27T10:16:37.108Z,4476
2019-02-27T10:17:35.702Z,4452
2019-02-27T10:18:34.323Z,4444
2019-02-27T10:19:34.855Z,4424
2019-02-27T10:20:36.659Z,4424
2019-02-27T10:21:34.001Z,4420
2019-02-27T10:22:34.033Z,4420
2019-02-27T10:23:37.582Z,4416
2019-02-27T10:24:36.830Z,4392
2019-02-27T10:25:33.960Z,4408
2019-02-27T10:26:33.950Z,4408
2019-02-27T10:27:36.422Z,4396
2019-02-27T10:28:38.590Z,4392
2019-02-27T10:29:33.923Z,4372
2019-02-27T10:30:33.923Z,4364
2019-02-27T10:31:34.109Z,4380
2019-02-27T10:32:36.398Z,4372
2019-02-27T10:33:33.642Z,4392
2019-02-27T10:34:33.881Z,4396
2019-02-27T10:35:39.639Z,4380
2019-02-27T10:36:37.966Z,4384
2019-02-27T10:37:34.121Z,4368
2019-02-27T10:38:40.047Z,4352
2019-02-27T10:39:36.847Z,4344
2019-02-27T10:40:33.833Z,4340
2019-02-27T10:41:33.824Z,4344
2019-02-27T10:42:33.815Z,4336
2019-02-27T10:43:33.803Z,4336
2019-02-27T10:44:36.820Z,4296
2019-02-27T10:45:33.781Z,4280
2019-02-27T10:46:33.775Z,4260
2019-02-27T10:47:39.903Z,4256
2019-02-27T10:48:33.756Z,4256
2019-02-27T10:49:33.764Z,4256
2019-02-27T10:50:35.378Z,4268
2019-02-27T10:51:35.195Z,4268
2019-02-27T10:52:33.718Z,4268
2019-02-27T10:53:34.966Z,4296
2019-02-27T10:54:33.459Z,4288
2019-02-27T10:55:34.226Z,4288
2019-02-27T10:56:33.692Z,4304
2019-02-27T10:57:43.080Z,4260
2019-02-27T10:58:33.667Z,4284
2019-02-27T10:59:33.659Z,4276
2019-02-27T11:00:33.652Z,4276
2019-02-27T11:01:38.563Z,4296
2019-02-27T11:02:33.640Z,4308
2019-02-27T11:03:34.521Z,4312
2019-02-27T11:04:36.263Z,4308
2019-02-27T11:05:33.666Z,4284
2019-02-27T11:06:45.046Z,4260
2019-02-27T11:07:33.593Z,4260
2019-02-27T11:08:36.037Z,4240
2019-02-27T11:09:33.577Z,4224
2019-02-27T11:10:33.579Z,4220
2019-02-27T11:11:33.559Z,4208
2019-02-27T11:12:36.362Z,4204
2019-02-27T11:13:33.557Z,4192
2019-02-27T11:14:38.999Z,4208
2019-02-27T11:15:33.781Z,4212
2019-02-27T11:16:35.091Z,4196
2019-02-27T11:17:33.510Z,4172
2019-02-27T11:18:33.511Z,4160
2019-02-27T11:19:34.848Z,4148
2019-02-27T11:20:33.251Z,4156
2019-02-27T11:21:32.992Z,4172
2019-02-27T11:22:36.473Z,4164
2019-02-27T11:23:33.463Z,4156
2019-02-27T11:24:33.451Z,4156
2019-02-27T11:25:33.488Z,4156
2019-02-27T11:26:37.996Z,4164
2019-02-27T11:27:33.430Z,4164
2019-02-27T11:28:33.422Z,4176
2019-02-27T11:29:33.469Z,4180
2019-02-27T11:30:38.425Z,4176
2019-02-27T11:31:33.396Z,4188
2019-02-27T11:32:33.408Z,4196
2019-02-27T11:33:37.547Z,4192
2019-02-27T11:34:33.379Z,4192
2019-02-27T11:35:33.366Z,4184
2019-02-27T11:36:34.879Z,4172
2019-02-27T11:37:33.355Z,4168
2019-02-27T11:38:33.112Z,4172
2019-02-27T11:39:37.436Z,4152
2019-02-27T11:40:33.338Z,4124
2019-02-27T11:41:33.320Z,4124
2019-02-27T11:42:38.808Z,4128
2019-02-27T11:43:33.301Z,4124
2019-02-27T11:44:33.170Z,4128
2019-02-27T11:45:33.293Z,4136
2019-02-27T11:46:35.089Z,4140
2019-02-27T11:47:33.271Z,4128
2019-02-27T11:48:33.272Z,4120
2019-02-27T11:49:33.258Z,4124
2019-02-27T11:50:33.266Z,4116
2019-02-27T11:51:35.013Z,4112
2019-02-27T11:52:35.837Z,4108
2019-02-27T11:53:37.884Z,4100
2019-02-27T11:54:33.222Z,4088
2019-02-27T11:55:33.216Z,4068
2019-02-27T11:56:33.208Z,4048
2019-02-27T11:57:35.919Z,4064
2019-02-27T11:58:35.220Z,4072
2019-02-27T11:59:33.185Z,4076
2019-02-27T12:00:33.185Z,4084
2019-02-27T12:01:34.355Z,4072
2019-02-27T12:02:41.874Z,4060
2019-02-27T12:03:33.154Z,4052
2019-02-27T12:04:33.145Z,4036
2019-02-27T12:05:39.376Z,4032
2019-02-27T12:06:33.129Z,4032
2019-02-27T12:07:33.142Z,4028
2019-02-27T12:08:35.007Z,4020
2019-02-27T12:09:37.499Z,4012
2019-02-27T12:10:33.121Z,3996
2019-02-27T12:11:33.092Z,3984
2019-02-27T12:12:33.087Z,3976
2019-02-27T12:13:37.096Z,3984
2019-02-27T12:14:33.074Z,3992
2019-02-27T12:15:34.412Z,3996
2019-02-27T12:16:33.384Z,3996
2019-02-27T12:17:33.393Z,3988
2019-02-27T12:18:36.763Z,4028
2019-02-27T12:19:33.037Z,3980
2019-02-27T12:20:33.024Z,3980
2019-02-27T12:21:33.403Z,3972
2019-02-27T12:22:37.435Z,3960
2019-02-27T12:23:32.764Z,3940
2019-02-27T12:24:33.005Z,3944
2019-02-27T12:25:37.198Z,3932
2019-02-27T12:26:34.372Z,3928
2019-02-27T12:27:55.358Z,3920
2019-02-27T12:28:32.972Z,3920
2019-02-27T12:29:34.262Z,3920
2019-02-27T12:30:36.918Z,3916
2019-02-27T12:31:32.947Z,3916
2019-02-27T12:32:32.942Z,3904
2019-02-27T12:33:36.866Z,3888
2019-02-27T12:34:33.981Z,3888
2019-02-27T12:35:32.924Z,3884
2019-02-27T12:36:32.910Z,3880
2019-02-27T12:37:38.855Z,3868
2019-02-27T12:38:32.898Z,3864
2019-02-27T12:39:32.892Z,3872
2019-02-27T12:40:32.889Z,3840
2019-02-27T12:41:37.011Z,3832
2019-02-27T12:42:45.064Z,3832
2019-02-27T12:43:32.862Z,3828
2019-02-27T12:44:34.465Z,3824
2019-02-27T12:45:34.401Z,3812
2019-02-27T12:46:37.026Z,3804
2019-02-27T12:47:32.839Z,3804
2019-02-27T12:48:32.828Z,3800
2019-02-27T12:49:32.822Z,3800
2019-02-27T12:50:35.832Z,3788
2019-02-27T12:51:35.195Z,3784
2019-02-27T12:52:32.801Z,3788
2019-02-27T12:53:32.798Z,3792
2019-02-27T12:54:34.480Z,3812
2019-02-27T12:55:37.895Z,3788
2019-02-27T12:56:32.776Z,3816
2019-02-27T12:57:32.768Z,3788
2019-02-27T12:58:32.762Z,3788
2019-02-27T12:59:37.537Z,3784
2019-02-27T13:00:32.759Z,3776
2019-02-27T13:01:32.741Z,3768
2019-02-27T13:02:42.492Z,3752
2019-02-27T13:03:32.725Z,3748
2019-02-27T13:04:32.724Z,3760
2019-02-27T13:05:34.452Z,3768
2019-02-27T13:06:37.381Z,3772
2019-02-27T13:07:32.706Z,3772
2019-02-27T13:08:32.692Z,3768
2019-02-27T13:09:32.686Z,3768
2019-02-27T13:10:37.972Z,3768
2019-02-27T13:11:32.676Z,3768
2019-02-27T13:12:32.662Z,3776
2019-02-27T13:13:33.536Z,3776
2019-02-27T13:14:35.583Z,3764
2019-02-27T13:15:32.666Z,3768
2019-02-27T13:16:32.643Z,3776
2019-02-27T13:17:32.632Z,3760
2019-02-27T13:18:36.612Z,3756
2019-02-27T13:19:32.622Z,3756
2019-02-27T13:20:32.639Z,3744
2019-02-27T13:21:32.613Z,3748
2019-02-27T13:22:35.997Z,3744
2019-02-27T13:23:32.595Z,3752
2019-02-27T13:24:32.585Z,3760
2019-02-27T13:25:32.875Z,3760
2019-02-27T13:26:36.868Z,3756
2019-02-27T13:27:32.566Z,3756
2019-02-27T13:28:32.560Z,3744
2019-02-27T13:29:32.584Z,3736
2019-02-27T13:30:32.317Z,3724
2019-02-27T13:31:34.031Z,3720
2019-02-27T13:32:34.557Z,3728
2019-02-27T13:33:32.892Z,3728
2019-02-27T13:34:32.529Z,3720
2019-02-27T13:35:33.584Z,3720
2019-02-27T13:36:36.112Z,3720
2019-02-27T13:37:32.506Z,3712
2019-02-27T13:38:32.494Z,3704
2019-02-27T13:39:33.373Z,3696
2019-02-27T13:40:37.807Z,3692
2019-02-27T13:41:32.488Z,3692
2019-02-27T13:42:32.224Z,3684
2019-02-27T13:43:34.285Z,3684
2019-02-27T13:44:38.797Z,3680
2019-02-27T13:45:32.461Z,3680
2019-02-27T13:46:32.459Z,3680
2019-02-27T13:47:35.672Z,3680
2019-02-27T13:48:32.192Z,3676
2019-02-27T13:49:33.069Z,3668
2019-02-27T13:50:34.078Z,3660
2019-02-27T13:51:33.758Z,3652
2019-02-27T13:52:32.797Z,3644